createdAt,value
2018-10-09T00:00:00.902Z,10.00
2018-10-09T00:03:07.909Z,10.00
2018-10-09T00:06:14.969Z,10.00
2018-10-09T00:09:22.219Z,10.00
2018-10-09T00:12:29.444Z,10.00
2018-10-09T00:15:36.775Z,10.00
2018-10-09T00:18:43.903Z,10.10
2018-10-09T00:21:51.108Z,10.10
2018-10-09T00:24:58.603Z,10.10
2018-10-09T00:28:04.971Z,10.00
2018-10-09T00:31:12.054Z,10.10
2018-10-09T00:34:19.255Z,10.30
2018-10-09T00:37:26.647Z,10.30
2018-10-09T00:40:33.681Z,10.30
2018-10-09T00:43:40.789Z,10.40
2018-10-09T00:46:47.077Z,10.40
2018-10-09T00:49:54.142Z,10.40
2018-10-09T00:53:01.155Z,10.40
2018-10-09T00:56:08.384Z,10.40
2018-10-09T00:59:15.443Z,10.40
2018-10-09T01:02:22.800Z,10.50
2018-10-09T01:05:30.079Z,10.50
2018-10-09T01:08:37.275Z,10.50
2018-10-09T01:11:44.499Z,10.50
2018-10-09T01:14:51.792Z,10.50
2018-10-09T01:17:58.960Z,10.50
2018-10-09T01:21:06.235Z,10.50
2018-10-09T01:24:13.270Z,10.50
2018-10-09T01:27:20.545Z,10.50
2018-10-09T01:30:27.814Z,10.50
2018-10-09T01:33:34.071Z,10.50
2018-10-09T01:36:40.736Z,10.50
2018-10-09T01:39:47.870Z,10.40
2018-10-09T01:42:55.166Z,9.90
2018-10-09T01:46:02.325Z,9.60
2018-10-09T01:49:09.647Z,9.40
2018-10-09T01:52:16.702Z,9.40
2018-10-09T01:55:23.722Z,9.30
2018-10-09T01:58:30.765Z,9.20
2018-10-09T02:01:37.982Z,9.20
2018-10-09T02:04:45.047Z,9.20
2018-10-09T02:07:52.335Z,9.30
2018-10-09T02:10:58.531Z,9.40
2018-10-09T02:14:04.900Z,9.40
2018-10-09T02:17:11.974Z,9.40
2018-10-09T02:20:19.231Z,9.40
2018-10-09T02:23:27.160Z,9.50
2018-10-09T02:26:34.502Z,9.50
2018-10-09T02:29:41.865Z,9.50
2018-10-09T02:32:48.747Z,9.50
2018-10-09T02:35:55.727Z,9.50
2018-10-09T02:39:03.010Z,9.50
2018-10-09T02:42:10.186Z,9.40
2018-10-09T02:45:17.519Z,9.40
2018-10-09T02:48:24.654Z,9.40
2018-10-09T02:51:31.812Z,9.40
2018-10-09T02:54:38.817Z,9.40
2018-10-09T02:57:45.952Z,9.60
2018-10-09T03:00:52.790Z,9.60
2018-10-09T03:03:59.904Z,9.60
2018-10-09T03:07:06.953Z,9.50
2018-10-09T03:10:14.083Z,9.50
2018-10-09T03:13:21.447Z,9.40
2018-10-09T03:16:28.432Z,9.40
2018-10-09T03:19:35.848Z,9.30
2018-10-09T03:22:43.248Z,9.20
2018-10-09T03:25:50.401Z,9.20
2018-10-09T03:28:57.727Z,9.20
2018-10-09T03:32:04.755Z,9.10
2018-10-09T03:35:11.870Z,9.00
2018-10-09T03:38:18.876Z,9.10
2018-10-09T03:41:25.233Z,9.10
2018-10-09T03:44:32.519Z,9.00
2018-10-09T03:47:39.661Z,9.00
2018-10-09T03:50:46.972Z,9.10
2018-10-09T03:53:54.115Z,9.10
2018-10-09T03:57:02.105Z,9.30
2018-10-09T04:00:09.236Z,9.40
2018-10-09T04:03:16.114Z,9.40
2018-10-09T04:06:23.254Z,9.40
2018-10-09T04:09:31.500Z,9.40
2018-10-09T04:12:38.614Z,9.40
2018-10-09T04:15:45.652Z,9.30
2018-10-09T04:18:52.804Z,9.20
2018-10-09T04:21:59.697Z,9.20
2018-10-09T04:25:06.578Z,9.30
2018-10-09T04:28:13.705Z,9.30
2018-10-09T04:31:20.051Z,9.30
2018-10-09T04:34:26.605Z,9.30
2018-10-09T04:37:32.853Z,9.30
2018-10-09T04:40:40.022Z,9.30
2018-10-09T04:43:47.269Z,9.40
2018-10-09T04:46:53.916Z,9.40
2018-10-09T04:50:01.050Z,9.40
2018-10-09T04:53:08.180Z,9.50
2018-10-09T04:56:15.374Z,9.50
2018-10-09T04:59:22.527Z,9.60
2018-10-09T05:02:28.761Z,9.70
2018-10-09T05:05:35.759Z,9.80
2018-10-09T05:08:42.848Z,9.90
2018-10-09T05:11:50.245Z,9.90
2018-10-09T05:14:57.352Z,10.10
2018-10-09T05:18:04.507Z,10.20
2018-10-09T05:21:11.817Z,10.30
2018-10-09T05:24:19.034Z,10.40
2018-10-09T05:27:26.201Z,10.50
2018-10-09T05:30:33.266Z,10.60
2018-10-09T05:33:40.389Z,10.70
2018-10-09T05:36:47.355Z,10.80
2018-10-09T05:39:53.639Z,11.00
2018-10-09T05:43:00.739Z,11.00
2018-10-09T05:46:07.038Z,11.10
2018-10-09T05:49:13.181Z,11.10
2018-10-09T05:52:20.296Z,11.20
2018-10-09T05:55:27.377Z,11.30
2018-10-09T05:58:34.643Z,11.30
2018-10-09T06:01:41.928Z,11.40
2018-10-09T06:04:49.361Z,11.50
2018-10-09T06:07:56.671Z,11.60
2018-10-09T06:11:03.849Z,11.60
2018-10-09T06:14:11.447Z,11.70
2018-10-09T06:17:18.805Z,11.70
2018-10-09T06:20:25.319Z,11.70
2018-10-09T06:23:33.178Z,11.90
2018-10-09T06:26:40.359Z,11.30
2018-10-09T06:29:47.175Z,11.10
2018-10-09T06:32:54.092Z,11.00
2018-10-09T06:36:01.114Z,10.90
2018-10-09T06:39:08.095Z,11.00
2018-10-09T06:42:15.158Z,11.10
2018-10-09T06:45:21.338Z,11.20
2018-10-09T06:48:28.569Z,11.30
2018-10-09T06:51:35.900Z,11.40
2018-10-09T06:54:43.041Z,11.60
2018-10-09T06:57:50.212Z,11.70
2018-10-09T07:00:57.349Z,12.00
2018-10-09T07:04:04.433Z,12.00
2018-10-09T07:07:11.724Z,12.10
2018-10-09T07:10:18.050Z,12.10
2018-10-09T07:13:25.384Z,12.20
2018-10-09T07:16:32.395Z,12.40
2018-10-09T07:19:39.356Z,12.50
2018-10-09T07:22:46.643Z,12.70
2018-10-09T07:25:53.809Z,12.80
2018-10-09T07:29:00.206Z,12.80
2018-10-09T07:32:08.464Z,12.90
2018-10-09T07:35:15.591Z,13.00
2018-10-09T07:38:22.699Z,13.20
2018-10-09T07:41:29.662Z,13.20
2018-10-09T07:44:36.735Z,13.30
2018-10-09T07:47:43.653Z,13.30
2018-10-09T07:50:50.229Z,13.50
2018-10-09T07:53:57.225Z,13.60
2018-10-09T07:57:04.279Z,13.80
2018-10-09T08:00:11.264Z,13.80
2018-10-09T08:03:18.067Z,13.50
2018-10-09T08:06:25.157Z,13.40
2018-10-09T08:09:32.206Z,13.50
2018-10-09T08:12:41.166Z,13.60
2018-10-09T08:15:55.548Z,13.70
2018-10-09T08:19:03.212Z,13.70
2018-10-09T08:22:10.931Z,13.60
2018-10-09T08:25:18.011Z,13.80
2018-10-09T08:28:25.166Z,13.90
2018-10-09T08:31:33.545Z,14.00
2018-10-09T08:34:41.315Z,14.00
2018-10-09T08:37:48.109Z,14.20
2018-10-09T08:40:55.300Z,14.30
2018-10-09T08:44:02.444Z,14.40
2018-10-09T08:47:09.584Z,14.70
2018-10-09T08:50:16.704Z,15.00
2018-10-09T08:53:23.780Z,15.00
2018-10-09T08:56:30.572Z,14.80
2018-10-09T08:59:37.447Z,15.00
2018-10-09T09:02:44.627Z,14.80
2018-10-09T09:05:51.586Z,15.20
2018-10-09T09:08:57.755Z,15.10
2018-10-09T09:12:04.670Z,15.10
2018-10-09T09:15:11.946Z,15.50
2018-10-09T09:18:18.808Z,15.40
2018-10-09T09:21:25.843Z,15.30
2018-10-09T09:24:32.817Z,15.30
2018-10-09T09:27:40.151Z,15.60
2018-10-09T09:30:47.371Z,15.80
2018-10-09T09:33:54.498Z,16.00
2018-10-09T09:37:02.030Z,15.90
2018-10-09T09:40:09.894Z,16.10
2018-10-09T09:43:17.025Z,15.90
2018-10-09T09:46:24.996Z,16.00
2018-10-09T09:49:31.508Z,15.70
2018-10-09T09:52:38.973Z,15.70
2018-10-09T09:55:46.179Z,15.70
2018-10-09T09:58:53.303Z,16.00
2018-10-09T10:02:00.411Z,15.80
2018-10-09T10:05:07.653Z,16.10
2018-10-09T10:08:16.805Z,16.10
2018-10-09T10:11:26.229Z,16.40
2018-10-09T10:14:38.616Z,16.40
2018-10-09T10:17:51.085Z,16.50
2018-10-09T10:21:01.686Z,16.50
2018-10-09T10:24:11.220Z,16.70
2018-10-09T10:27:20.913Z,17.00
2018-10-09T10:30:35.252Z,17.20
2018-10-09T10:33:45.905Z,17.20
2018-10-09T10:36:54.779Z,17.20
2018-10-09T10:40:03.694Z,17.30
2018-10-09T10:43:14.880Z,17.30
2018-10-09T10:46:24.856Z,17.20
2018-10-09T10:49:36.827Z,17.50
2018-10-09T10:52:47.750Z,17.60
2018-10-09T10:55:58.235Z,17.80
2018-10-09T10:59:09.049Z,17.70
2018-10-09T11:02:19.493Z,17.70
2018-10-09T11:05:28.080Z,17.80
2018-10-09T11:08:34.988Z,17.90
2018-10-09T11:11:42.304Z,17.90
2018-10-09T11:14:49.511Z,18.00
2018-10-09T11:17:56.713Z,18.20
2018-10-09T11:21:03.550Z,18.10
2018-10-09T11:24:10.625Z,18.10
2018-10-09T11:27:17.724Z,18.30
2018-10-09T11:30:24.930Z,18.30
2018-10-09T11:33:31.905Z,18.40
2018-10-09T11:36:39.227Z,18.40
2018-10-09T11:39:46.468Z,18.10
2018-10-09T11:42:52.772Z,18.30
2018-10-09T11:46:00.119Z,18.30
2018-10-09T11:49:07.292Z,18.20
2018-10-09T11:52:14.588Z,18.30
2018-10-09T11:55:21.675Z,18.30
2018-10-09T11:58:28.548Z,18.50
2018-10-09T12:01:34.767Z,18.60
2018-10-09T12:04:41.795Z,18.60
2018-10-09T12:07:49.021Z,18.60
2018-10-09T12:10:56.036Z,18.80
2018-10-09T12:14:03.213Z,18.90
2018-10-09T12:17:10.494Z,18.60
2018-10-09T12:20:17.655Z,18.50
2018-10-09T12:23:24.777Z,18.40
2018-10-09T12:26:31.940Z,18.50
2018-10-09T12:29:39.313Z,18.40
2018-10-09T12:32:46.500Z,18.50
2018-10-09T12:35:53.741Z,18.60
2018-10-09T12:39:01.028Z,18.60
2018-10-09T12:42:08.296Z,18.70
2018-10-09T12:45:14.645Z,18.80
2018-10-09T12:48:21.639Z,18.90
2018-10-09T12:51:29.086Z,19.10
2018-10-09T12:54:36.160Z,19.00
2018-10-09T12:57:43.241Z,18.90
2018-10-09T13:00:50.512Z,18.90
2018-10-09T13:03:57.537Z,19.00
2018-10-09T13:07:04.840Z,19.00
2018-10-09T13:10:11.114Z,19.10
2018-10-09T13:13:18.245Z,19.00
2018-10-09T13:16:25.473Z,19.00
2018-10-09T13:19:50.457Z,19.10
2018-10-09T13:23:09.702Z,19.10
2018-10-09T13:26:16.780Z,19.20
2018-10-09T13:29:23.999Z,19.30
2018-10-09T13:32:31.099Z,19.20
2018-10-09T13:35:38.338Z,19.10
2018-10-09T13:38:45.756Z,19.00
2018-10-09T13:41:53.045Z,19.00
2018-10-09T13:45:00.130Z,18.90
2018-10-09T13:48:07.544Z,18.80
2018-10-09T13:51:14.759Z,18.80
2018-10-09T13:54:22.037Z,18.80
2018-10-09T13:57:30.238Z,19.00
2018-10-09T14:00:37.528Z,19.10
2018-10-09T14:03:44.626Z,19.10
2018-10-09T14:06:51.894Z,19.10
2018-10-09T14:09:59.032Z,19.20
2018-10-09T14:13:06.310Z,19.20
2018-10-09T14:16:13.490Z,19.40
2018-10-09T14:19:20.504Z,19.50
2018-10-09T14:22:27.907Z,19.60
2018-10-09T14:25:35.841Z,19.60
2018-10-09T14:28:43.204Z,19.80
2018-10-09T14:31:50.423Z,19.80
2018-10-09T14:34:57.563Z,19.70
2018-10-09T14:38:04.719Z,19.40
2018-10-09T14:41:13.042Z,19.50
2018-10-09T14:44:20.216Z,19.50
2018-10-09T14:47:27.405Z,19.50
2018-10-09T14:50:34.376Z,19.40
2018-10-09T14:53:41.501Z,19.50
2018-10-09T14:56:48.670Z,19.50
2018-10-09T14:59:55.697Z,19.50
2018-10-09T15:03:02.257Z,19.50
2018-10-09T15:06:11.328Z,19.60
2018-10-09T15:09:22.327Z,19.50
2018-10-09T15:12:29.560Z,19.30
2018-10-09T15:15:36.879Z,19.20
2018-10-09T15:18:43.999Z,19.10
2018-10-09T15:21:51.256Z,19.10
2018-10-09T15:24:59.603Z,19.00
2018-10-09T15:28:06.780Z,18.90
2018-10-09T15:31:14.108Z,18.80
2018-10-09T15:34:21.193Z,18.70
2018-10-09T15:37:28.226Z,18.70
2018-10-09T15:40:35.258Z,18.70
2018-10-09T15:43:42.335Z,18.60
2018-10-09T15:46:49.296Z,18.60
2018-10-09T15:49:57.430Z,18.50
2018-10-09T15:53:04.571Z,18.30
2018-10-09T15:56:11.632Z,18.20
2018-10-09T15:59:18.807Z,18.30
2018-10-09T16:02:25.876Z,18.30
2018-10-09T16:05:33.231Z,18.20
2018-10-09T16:08:40.995Z,18.20
2018-10-09T16:11:48.039Z,18.10
2018-10-09T16:14:56.401Z,18.00
2018-10-09T16:18:03.560Z,18.00
2018-10-09T16:21:10.745Z,17.70
2018-10-09T16:24:18.907Z,17.60
2018-10-09T16:27:26.260Z,17.40
2018-10-09T16:30:33.493Z,17.30
2018-10-09T16:33:40.933Z,17.10
2018-10-09T16:36:47.825Z,17.10
2018-10-09T16:39:54.785Z,16.90
2018-10-09T16:43:01.789Z,16.80
2018-10-09T16:46:08.790Z,16.60
2018-10-09T16:49:16.097Z,16.50
2018-10-09T16:52:23.052Z,16.40
2018-10-09T16:55:30.190Z,16.20
2018-10-09T16:58:37.356Z,16.20
2018-10-09T17:01:44.856Z,16.00
2018-10-09T17:04:52.003Z,15.90
2018-10-09T17:07:59.223Z,15.80
2018-10-09T17:11:06.224Z,15.60
2018-10-09T17:14:13.356Z,15.60
2018-10-09T17:17:20.666Z,15.50
2018-10-09T17:20:26.980Z,15.40
2018-10-09T17:23:33.946Z,15.10
2018-10-09T17:26:41.079Z,15.10
2018-10-09T17:29:48.100Z,15.00
2018-10-09T17:32:55.333Z,14.90
2018-10-09T17:36:02.313Z,14.80
2018-10-09T17:39:09.266Z,14.70
2018-10-09T17:42:16.773Z,14.50
2018-10-09T17:45:23.896Z,14.40
2018-10-09T17:48:30.951Z,14.20
2018-10-09T17:51:38.094Z,14.10
2018-10-09T17:54:44.358Z,14.00
2018-10-09T17:57:51.549Z,13.90
2018-10-09T18:00:58.756Z,13.90
2018-10-09T18:04:05.915Z,14.00
2018-10-09T18:07:13.118Z,14.00
2018-10-09T18:10:20.142Z,13.90
2018-10-09T18:13:27.188Z,13.80
2018-10-09T18:16:34.299Z,13.70
2018-10-09T18:19:41.376Z,13.70
2018-10-09T18:22:48.372Z,13.60
2018-10-09T18:25:55.302Z,13.60
2018-10-09T18:29:02.861Z,13.50
2018-10-09T18:32:09.832Z,13.40
2018-10-09T18:35:17.001Z,13.40
2018-10-09T18:38:24.300Z,13.30
2018-10-09T18:41:31.481Z,13.20
2018-10-09T18:44:38.879Z,13.20
2018-10-09T18:47:51.074Z,13.20
2018-10-09T18:50:58.259Z,13.20
2018-10-09T18:54:05.419Z,13.20
2018-10-09T18:57:11.708Z,13.00
2018-10-09T19:00:19.737Z,12.90
2018-10-09T19:03:26.832Z,12.90
2018-10-09T19:06:33.913Z,12.80
2018-10-09T19:09:40.843Z,12.80
2018-10-09T19:12:48.077Z,12.70
2018-10-09T19:15:54.880Z,12.70
2018-10-09T19:19:01.728Z,12.70
2018-10-09T19:22:08.631Z,12.60
2018-10-09T19:25:17.696Z,12.60
2018-10-09T19:28:24.675Z,12.50
2018-10-09T19:31:31.758Z,12.50
2018-10-09T19:34:38.754Z,12.50
2018-10-09T19:37:45.812Z,12.50
2018-10-09T19:40:53.105Z,12.40
2018-10-09T19:44:00.192Z,12.40
2018-10-09T19:47:07.220Z,12.40
2018-10-09T19:50:14.376Z,12.40
2018-10-09T19:53:21.668Z,12.30
2018-10-09T19:56:28.627Z,12.30
2018-10-09T19:59:35.812Z,12.20
2018-10-09T20:02:42.931Z,12.10
2018-10-09T20:05:50.160Z,12.00
2018-10-09T20:08:57.281Z,11.80
2018-10-09T20:12:04.583Z,11.70
2018-10-09T20:15:11.534Z,11.60
2018-10-09T20:18:18.579Z,11.50
2018-10-09T20:21:25.780Z,11.50
2018-10-09T20:24:33.428Z,11.50
2018-10-09T20:27:41.188Z,11.40
2018-10-09T20:30:48.307Z,11.30
2018-10-09T20:33:57.245Z,11.10
2018-10-09T20:37:04.468Z,11.10
2018-10-09T20:40:11.791Z,11.00
2018-10-09T20:43:18.969Z,11.00
2018-10-09T20:46:26.348Z,10.90
2018-10-09T20:49:33.654Z,10.80
2018-10-09T20:52:40.664Z,10.70
2018-10-09T20:55:47.899Z,10.70
2018-10-09T20:58:56.074Z,10.70
2018-10-09T21:02:03.606Z,10.60
2018-10-09T21:05:11.860Z,10.60
2018-10-09T21:08:19.398Z,10.60
2018-10-09T21:11:26.348Z,10.50
2018-10-09T21:14:34.407Z,10.50
2018-10-09T21:17:41.805Z,10.50
2018-10-09T21:20:49.635Z,10.50
2018-10-09T21:23:57.724Z,10.50
2018-10-09T21:27:04.595Z,10.40
2018-10-09T21:30:11.656Z,10.40
2018-10-09T21:33:19.015Z,10.40
2018-10-09T21:36:26.006Z,10.30
2018-10-09T21:39:33.234Z,10.30
2018-10-09T21:42:40.348Z,10.30
2018-10-09T21:45:47.540Z,10.30
2018-10-09T21:48:54.757Z,10.20
2018-10-09T21:52:02.016Z,10.10
2018-10-09T21:55:09.284Z,10.10
2018-10-09T21:58:16.569Z,10.10
2018-10-09T22:01:23.735Z,10.00
2018-10-09T22:04:30.780Z,10.00
2018-10-09T22:07:38.120Z,10.00
2018-10-09T22:10:45.338Z,10.00
2018-10-09T22:13:52.793Z,9.90
2018-10-09T22:16:59.164Z,9.90
2018-10-09T22:20:14.544Z,9.90
2018-10-09T22:23:21.843Z,9.80
2018-10-09T22:26:29.356Z,9.80
2018-10-09T22:29:37.768Z,9.80
2018-10-09T22:32:44.354Z,9.80
2018-10-09T22:35:51.419Z,9.70
2018-10-09T22:38:58.624Z,9.70
2018-10-09T22:42:05.919Z,9.70
2018-10-09T22:45:13.270Z,9.60
2018-10-09T22:48:20.884Z,9.60
2018-10-09T22:51:28.098Z,9.60
2018-10-09T22:54:34.968Z,9.60
2018-10-09T22:57:42.145Z,9.50
2018-10-09T23:00:49.475Z,9.50
2018-10-09T23:03:56.691Z,9.50
2018-10-09T23:07:03.935Z,9.50
2018-10-09T23:10:10.821Z,9.60
2018-10-09T23:13:17.902Z,9.60
2018-10-09T23:16:25.122Z,9.60
2018-10-09T23:19:32.363Z,9.60
2018-10-09T23:22:39.493Z,9.70
2018-10-09T23:25:46.618Z,9.60
2018-10-09T23:28:53.751Z,9.70
2018-10-09T23:32:00.940Z,9.70
2018-10-09T23:35:07.841Z,9.80
2018-10-09T23:38:14.995Z,9.90
2018-10-09T23:41:22.244Z,9.80
2018-10-09T23:44:28.668Z,9.90
2018-10-09T23:47:35.741Z,9.90
2018-10-09T23:50:42.970Z,10.00
2018-10-09T23:53:50.072Z,10.00
2018-10-09T23:56:57.235Z,10.00
